Latest Coastal Weather Observations for Learmonth

IDW60701

Issued at 11:03 pm WST Monday 16 January 2017 (issued every 10 minutes, with the page automatically refreshed every 10 minutes)

About coastal observations | Map of coastal stations | Coastal observations for WA | Marine services | Other Formats
Station Details ID: 005007 Name: LEARMONTH AIRPORT Lat: -22.24 Lon: 114.10 Height: 5.0 m
Data from the previous 72 hours. | See also: Recent months at Learmonth
Date/Time
WST
Temp
°C
Wind Pressure Rain since
9am
mm
Weather Cloud Vis
km
Sea
Height
m
Swell
Dir  Spd
kts
Gust
kts
hPa Trend Height
m
Period
s
Dir
16/11:00pm 25.1 WSW 10 13 1006.5 - 0.0 - - 10 - - - -
16/10:30pm 25.3 SW 10 13 1006.6 - 0.0 - - 10 - - - -
16/10:00pm 25.6 SW 10 13 1006.5 - 0.0 - Partly cloudy 10 - - - -
16/09:30pm 25.7 SW 8 11 1006.3 - 0.0 - - 10 - - - -
16/09:00pm 25.9 SW 10 12 1006.0 - 0.0 - - 10 - - - -
16/08:30pm 26.0 SW 11 14 1005.9 - 0.0 - Partly cloudy 10 - - - -
16/08:00pm 26.4 SSW 11 14 1005.5 - 0.0 - - 10 - - - -
16/07:30pm 27.8 SW 13 16 1005.0 - 0.0 - Partly cloudy 10 - - - -
16/07:00pm 28.9 WSW 11 15 1004.5 - 0.0 - - 10 - - - -
16/06:30pm 29.6 W 13 17 1004.1 - 0.0 - Partly cloudy 10 - - - -
16/06:00pm 30.3 W 13 18 1003.8 - 0.0 - Partly cloudy 10 - - - -
16/05:30pm 30.5 W 11 16 1003.8 - 0.0 - Partly cloudy 10 - - - -
16/05:00pm 31.0 W 12 16 1003.8 - 0.0 - Partly cloudy 10 - - - -
16/04:30pm 31.7 W 10 16 1003.9 - 0.0 - Mostly clear 10 - - - -
16/04:00pm 31.1 W 12 15 1004.0 - 0.0 - Mostly clear 10 - - - -
16/03:30pm 30.7 N 12 16 1004.2 - 0.0 - Mostly clear 10 - - - -
16/03:00pm 30.8 NNE 13 17 1004.0 - 0.0 - Mostly clear 10 - - - -
16/02:30pm 32.2 NNE 14 17 1004.3 - 0.0 - Mostly clear 10 - - - -
16/02:00pm 30.6 NNE 15 18 1004.7 - 0.0 - - 10 - - - -
16/01:30pm 30.8 NNE 13 18 1005.0 - 0.0 - - 10 - - - -
16/01:00pm 30.7 NE 13 18 1005.2 - 0.0 - - 10 - - - -
16/12:30pm 29.0 NE 13 16 1005.4 - 0.0 - Mostly clear 10 - - - -
16/12:00pm 29.9 NE 11 15 1005.5 - 0.0 - Mostly cloudy 10 - - - -
16/11:30am 29.5 NE 10 13 1005.6 - 0.0 - Mostly clear 10 - - - -
16/11:00am 28.5 NE 11 13 1005.8 - 0.0 - Mostly clear 10 - - - -
16/10:30am 30.3 ENE 9 12 1006.0 - 0.0 - Mostly clear 10 - - - -
16/10:00am 30.3 ENE 7 10 1006.1 - 0.0 - Partly cloudy 10 - - - -
16/09:30am 28.5 WSW 3 6 1006.2 - 0.0 - Mostly clear 10 - - - -
16/09:00am 28.5 SSW 3 5 1006.1 - 0.0 - Cloudy 10 - - - -
16/08:30am 27.0 SW 5 8 1006.3 - 0.0 - Partly cloudy 10 - - - -
16/08:00am 26.6 SW 6 9 1006.2 - 0.0 - Cloudy 10 - - - -
16/07:30am 26.1 WSW 5 7 1006.1 - 0.0 - Cloudy 10 - - - -
16/07:00am 25.7 WSW 6 8 1006.1 - 0.0 - Cloudy 10 - - - -
16/06:30am 25.6 WSW 6 8 1005.9 - 0.0 - Cloudy 10 - - - -
16/06:00am 25.4 SW 7 9 1005.6 - 0.0 - Cloudy 10 - - - -
16/05:30am 25.3 WSW 7 9 1005.5 - 0.0 - Partly cloudy 10 - - - -
16/05:00am 25.6 W 7 9 1005.4 - 0.0 - Partly cloudy 10 - - - -
16/04:30am 26.2 W 1 4 1005.2 - 0.0 - Partly cloudy 10 - - - -
16/04:00am 26.2 NW 3 5 1005.1 - 0.0 - Partly cloudy 10 - - - -
16/03:30am 26.1 NW 2 3 1004.9 - 0.0 - Cloudy 10 - - - -
16/03:00am 26.0 W 4 5 1004.8 - 0.0 - Cloudy 10 - - - -
16/02:30am 25.9 W 5 6 1005.1 - 0.0 - Cloudy 10 - - - -
16/02:00am 25.8 WNW 5 6 1005.2 - 0.0 - Partly cloudy 10 - - - -
16/01:30am 25.8 WNW 6 8 1005.5 - 0.0 - Partly cloudy 10 - - - -
16/01:00am 25.7 WNW 4 5 1005.6 - 0.0 - Partly cloudy 10 - - - -
16/12:30am 25.7 WNW 5 6 1005.7 - 0.0 - Partly cloudy 10 - - - -
16/12:00am 25.7 W 6 7 1006.0 - 0.0 - Cloudy 10 - - - -
 
Date/Time
WST
Temp
°C
Wind Pressure Rain since
9am
mm
Weather Cloud Vis
km
Sea
Height
m
Swell
Dir  Spd
kts
Gust
kts
hPa Trend Height
m
Period
s
Dir
15/11:30pm 25.7 W 6 7 1006.4 - 0.0 - Partly cloudy 10 - - - -
15/11:00pm 26.0 WSW 6 7 1006.4 - 0.0 - Partly cloudy 10 - - - -
15/10:30pm 26.0 WSW 5 7 1006.7 - 0.0 - Partly cloudy 10 - - - -
15/10:00pm 26.0 W 6 8 1006.6 - 0.0 - Cloudy 10 - - - -
15/09:30pm 26.1 WSW 7 10 1006.5 - 0.0 - Cloudy 10 - - - -
15/09:00pm 26.4 W 6 8 1006.1 - 0.0 - Cloudy 10 - - - -
15/08:30pm 26.4 W 7 10 1005.8 - 0.0 - Cloudy 10 - - - -
15/08:00pm 26.6 W 9 11 1005.5 - 0.0 - Cloudy 10 - - - -
15/07:30pm 26.9 W 9 11 1005.4 - 0.0 - Cloudy 10 - - - -
15/07:00pm 27.2 WNW 11 15 1004.5 - 0.0 - Partly cloudy 10 - - - -
15/06:30pm 28.1 WNW 13 18 1003.9 - 0.0 - Partly cloudy 10 - - - -
15/06:00pm 29.9 WNW 12 15 1003.5 - 0.0 - Mostly clear 10 - - - -
15/05:30pm 31.1 WNW 11 13 1003.2 - 0.0 - Partly cloudy 10 - - - -
15/05:00pm 32.1 N 13 15 1002.8 - 0.0 - - 10 - - - -
15/04:30pm 30.1 NNE 14 18 1003.0 - 0.0 - - 10 - - - -
15/04:00pm 29.2 NNE 16 18 1003.1 - 0.0 - - 10 - - - -
15/03:30pm 30.4 NNE 15 18 1003.2 - 0.0 - Partly cloudy 10 - - - -
15/03:00pm 30.5 NNE 14 17 1003.4 - 0.0 - Partly cloudy 10 - - - -
15/02:30pm 31.2 NNE 12 15 1003.8 - 0.0 - Cloudy 10 - - - -
15/02:00pm 32.0 NE 7 10 1004.0 - 0.0 - Partly cloudy 10 - - - -
15/01:30pm 30.4 NNE 6 9 1004.3 - 0.0 - Partly cloudy 10 - - - -
15/01:00pm 30.6 ENE 8 11 1004.7 - 0.0 - Partly cloudy 10 - - - -
15/12:30pm 30.4 ENE 10 12 1004.8 - 0.0 - Partly cloudy 10 - - - -
15/12:00pm 29.4 ENE 9 11 1004.7 - 0.0 - Mostly clear 10 - - - -
15/11:30am 29.9 E 8 9 1005.0 - 0.0 - Partly cloudy 10 - - - -
15/11:00am 29.3 ENE 8 11 1005.4 - 0.0 - Partly cloudy 10 - - - -
15/10:30am 28.7 E 7 10 1005.7 - 0.0 - Partly cloudy 10 - - - -
15/10:00am 29.7 WNW 5 9 1005.9 - 0.0 - Partly cloudy 10 - - - -
15/09:30am 29.1 WSW 7 9 1005.9 - 0.0 - - 10 - - - -
15/09:00am 28.1 WSW 9 12 1005.7 - 0.0 - - 10 - - - -
15/08:30am 27.5 WSW 8 11 1005.4 - 0.0 - - 10 - - - -
15/08:00am 26.8 W 12 14 1004.9 - 0.0 - - 10 - - - -
15/07:30am 25.5 WSW 8 11 1005.6 - 0.0 - - 10 - - - -
15/07:23am 25.5 W 9 11 1005.6 - 0.0 - - 9 - - - -
15/07:00am 25.0 W 6 7 1005.8 - 0.0 - - 8 - - - -
15/06:30am 24.7 SW 6 8 1005.8 - 0.0 - Partly cloudy 9 - - - -
15/06:00am 24.5 WSW 8 10 1005.2 - 0.0 - - 8 - - - -
15/05:30am 24.5 SW 8 10 1005.2 - 0.0 - - 9 - - - -
15/05:04am 24.4 SSW 7 9 1005.1 - 0.0 - - 8 - - - -
15/05:00am 24.4 S 7 9 1005.1 - 0.0 - - 9 - - - -
15/04:30am 24.5 S 6 7 1004.7 - 0.0 - - 9 - - - -
15/04:00am 24.9 WSW 7 8 1004.4 - 0.0 - - 9 - - - -
15/03:30am 25.2 WSW 5 7 1004.2 - 0.0 - - 9 - - - -
15/03:00am 25.6 W 8 12 1003.9 - 0.0 - - 10 - - - -
15/02:30am 25.9 W 9 12 1004.1 - 0.0 - - 10 - - - -
15/02:00am 26.6 W 10 14 1004.4 - 0.0 - - 10 - - - -
15/01:30am 27.2 W 5 8 1004.6 - 0.0 - - 10 - - - -
15/01:00am 26.9 W 4 5 1005.3 - 0.0 - - 10 - - - -
15/12:30am 26.6 CALM 0 0 1005.6 - 0.0 - - 10 - - - -
15/12:00am 26.8 SW 5 8 1005.9 - 0.0 - Partly cloudy 10 - - - -
 
Date/Time
WST
Temp
°C
Wind Pressure Rain since
9am
mm
Weather Cloud Vis
km
Sea
Height
m
Swell
Dir  Spd
kts
Gust
kts
hPa Trend Height
m
Period
s
Dir
14/11:30pm 26.4 SW 8 10 1006.3 - 0.0 - Partly cloudy 10 - - - -
14/11:00pm 26.3 SW 6 7 1006.6 - 0.0 - - 10 - - - -
14/10:30pm 26.2 SSW 8 10 1006.6 - 0.0 - - 10 - - - -
14/10:00pm 26.5 S 11 13 1006.5 - 0.0 - - 10 - - - -
14/09:30pm 27.4 SW 11 14 1005.5 - 0.0 - - 10 - - - -
14/09:00pm 27.8 SW 13 16 1004.9 - 0.0 - - 10 - - - -
14/08:30pm 29.0 WSW 12 16 1004.3 - 0.0 - - 10 - - - -
14/08:00pm 29.9 WSW 13 17 1003.9 - 0.0 - - 10 - - - -
14/07:30pm 30.6 W 9 11 1003.9 - 0.0 - - 10 - - - -
14/07:00pm 30.8 W 14 16 1003.5 - 0.0 - - 10 - - - -
14/06:30pm 31.7 WSW 14 17 1003.5 - 0.0 - - 10 - - - -
14/06:00pm 32.2 W 13 17 1002.8 - 0.0 - - 10 - - - -
14/05:30pm 33.2 W 14 18 1002.0 - 0.0 - - 10 - - - -
14/05:00pm 34.6 W 13 16 1001.8 - 0.0 - - 10 - - - -
14/04:30pm 34.7 N 9 13 1002.0 - 0.0 - - 10 - - - -
14/04:00pm 34.4 N 13 15 1002.4 - 0.0 - - 10 - - - -
14/03:30pm 33.6 NNE 9 11 1002.7 - 0.0 - - 10 - - - -
14/03:00pm 33.7 NNE 8 10 1003.1 - 0.0 - - 10 - - - -
14/02:30pm 33.6 NNE 8 11 1003.6 - 0.0 - - 10 - - - -
14/02:00pm 32.7 NNE 9 12 1004.1 - 0.0 - - 10 - - - -
14/01:30pm 32.6 NNE 10 12 1004.5 - 0.0 - - 10 - - - -
14/01:00pm 33.3 NNE 10 13 1005.0 - 0.0 - - 10 - - - -
14/12:30pm 33.1 NNE 9 13 1005.2 - 0.0 - - 10 - - - -
14/12:00pm 31.1 ENE 9 12 1005.5 - 0.0 - - 10 - - - -
14/11:30am 31.2 ENE 10 12 1005.7 - 0.0 - - 10 - - - -
14/11:00am 31.5 ENE 8 10 1005.6 - 0.0 - - 10 - - - -
14/10:30am 31.4 E 9 13 1005.7 - 0.0 - - 10 - - - -
14/10:00am 31.9 ESE 5 9 1005.7 - 0.0 - - 10 - - - -
14/09:30am 29.8 SSW 6 11 1005.8 - 0.0 - - 10 - - - -
14/09:00am 28.5 SSW 9 13 1005.9 - 0.0 - - 10 - - - -
14/08:30am 26.2 S 11 15 1006.0 - 0.0 - - 10 - - - -
14/08:00am 25.2 SW 13 16 1005.8 - 0.0 - - 10 - - - -
14/07:30am 23.9 SSW 13 16 1005.9 - 0.0 - - 10 - - - -
14/07:00am 22.8 SW 11 14 1006.0 - 0.0 - - 10 - - - -
14/06:30am 21.8 SSW 6 8 1006.1 - 0.0 - - 10 - - - -
14/06:00am 21.5 S 7 8 1005.9 - 0.0 - - 10 - - - -
14/05:30am 22.0 S 7 9 1005.2 - 0.0 - - 10 - - - -
14/05:00am 22.7 S 8 11 1004.7 - 0.0 - - 10 - - - -
14/04:30am 23.4 SSW 11 15 1004.2 - 0.0 - - 10 - - - -
14/04:00am 23.9 SSW 12 16 1003.9 - 0.0 - - 10 - - - -
14/03:30am 24.1 SSW 13 17 1003.8 - 0.0 - - 10 - - - -
14/03:00am 23.7 SW 13 19 1004.0 - 0.0 - - 10 - - - -
14/02:30am 23.6 SSW 12 17 1004.4 - 0.0 - - 10 - - - -
14/02:00am 24.3 SW 15 19 1003.9 - 0.0 - - 10 - - - -
14/01:30am 24.6 SSW 17 22 1004.0 - 0.0 - - 10 - - - -
14/01:00am 24.8 SSW 15 21 1004.1 - 0.0 - - 10 - - - -
14/12:30am 24.9 SSW 15 24 1004.3 - 0.0 - - 10 - - - -
14/12:00am 25.3 SW 15 20 1004.4 - 0.0 - - 10 - - - -
 
Date/Time
WST
Temp
°C
Wind Pressure Rain since
9am
mm
Weather Cloud Vis
km
Sea
Height
m
Swell
Dir  Spd
kts
Gust
kts
hPa Trend Height
m
Period
s
Dir
13/11:30pm 25.5 SW 16 21 1004.6 - 0.0 - - 10 - - - -

Other Formats:

Comma delimited format used in spreadsheet applications
http://www.bom.gov.au/fwo/IDW60701/IDW60701.94302.axf

JavaScript Object Notation format (JSON) in row-major order
http://www.bom.gov.au/fwo/IDW60701/IDW60701.94302.json